createdAt,value
2023-01-03T00:00:03.732Z,8.56
2023-01-03T00:01:03.536Z,8.56
2023-01-03T00:02:03.669Z,8.56
2023-01-03T00:03:03.585Z,8.56
2023-01-03T00:04:03.626Z,8.50
2023-01-03T00:05:03.508Z,8.50
2023-01-03T00:06:04.391Z,8.50
2023-01-03T00:07:03.643Z,8.44
2023-01-03T00:08:03.428Z,8.44
2023-01-03T00:09:04.408Z,8.44
2023-01-03T00:10:04.400Z,8.44
2023-01-03T00:11:03.591Z,8.38
2023-01-03T00:12:03.673Z,8.38
2023-01-03T00:13:03.615Z,8.38
2023-01-03T00:14:03.552Z,8.31
2023-01-03T00:15:03.758Z,8.31
2023-01-03T00:16:03.745Z,8.31
2023-01-03T00:17:03.969Z,8.25
2023-01-03T00:18:03.829Z,8.25
2023-01-03T00:19:03.910Z,8.25
2023-01-03T00:20:03.938Z,8.25
2023-01-03T00:21:03.748Z,8.19
2023-01-03T00:22:03.758Z,8.19
2023-01-03T00:23:03.754Z,8.19
2023-01-03T00:24:03.671Z,8.12
2023-01-03T00:25:03.588Z,8.12
2023-01-03T00:26:03.584Z,8.12
2023-01-03T00:27:03.675Z,8.12
2023-01-03T00:28:03.588Z,8.06
2023-01-03T00:29:03.687Z,8.06
2023-01-03T00:30:03.597Z,8.06
2023-01-03T00:31:03.594Z,8.06
2023-01-03T00:32:03.521Z,8.00
2023-01-03T00:33:04.463Z,8.00
2023-01-03T00:34:04.398Z,8.00
2023-01-03T00:35:05.438Z,8.00
2023-01-03T00:36:04.412Z,8.00
2023-01-03T00:37:04.226Z,7.94
2023-01-03T00:38:04.236Z,7.94
2023-01-03T00:39:04.345Z,7.94
2023-01-03T00:40:04.155Z,7.94
2023-01-03T00:41:04.314Z,7.94
2023-01-03T00:42:04.238Z,7.94
2023-01-03T00:43:04.151Z,7.94
2023-01-03T00:44:04.150Z,7.94
2023-01-03T00:45:04.083Z,7.94
2023-01-03T00:46:04.103Z,7.94
2023-01-03T00:47:03.918Z,7.94
2023-01-03T00:48:04.018Z,7.94
2023-01-03T00:49:03.997Z,7.94
2023-01-03T00:50:03.917Z,7.94
2023-01-03T00:51:03.907Z,7.94
2023-01-03T00:52:03.988Z,7.94
2023-01-03T00:53:03.988Z,7.94
2023-01-03T00:54:04.073Z,7.94
2023-01-03T00:55:04.227Z,7.94
2023-01-03T00:56:04.239Z,7.94
2023-01-03T00:57:03.581Z,7.94
2023-01-03T00:58:03.520Z,7.94
2023-01-03T00:59:03.594Z,7.94
2023-01-03T01:00:03.509Z,7.94
2023-01-03T01:01:03.620Z,7.94
2023-01-03T01:02:03.764Z,7.94
2023-01-03T01:03:03.688Z,7.94
2023-01-03T01:04:03.720Z,7.94
2023-01-03T01:05:03.669Z,7.94
2023-01-03T01:06:03.507Z,7.94
2023-01-03T01:07:03.628Z,7.94
2023-01-03T01:08:03.516Z,7.94
2023-01-03T01:09:04.391Z,7.94
2023-01-03T01:10:03.689Z,7.94
2023-01-03T01:11:03.788Z,7.94
2023-01-03T01:12:03.588Z,7.94
2023-01-03T01:13:03.689Z,7.94
2023-01-03T01:14:03.678Z,7.94
2023-01-03T01:15:03.507Z,7.94
2023-01-03T01:16:03.601Z,7.94
2023-01-03T01:17:03.678Z,7.94
2023-01-03T01:18:03.674Z,7.94
2023-01-03T01:19:03.587Z,7.94
2023-01-03T01:20:03.507Z,7.94
2023-01-03T01:21:04.487Z,7.94
2023-01-03T01:22:03.583Z,7.94
2023-01-03T01:23:03.558Z,7.94
2023-01-03T01:24:04.395Z,7.94
2023-01-03T01:25:04.415Z,7.94
2023-01-03T01:26:04.395Z,7.94
2023-01-03T01:27:04.403Z,7.94
2023-01-03T01:28:04.390Z,7.94
2023-01-03T01:29:04.321Z,7.94
2023-01-03T01:30:04.247Z,7.94
2023-01-03T01:31:04.406Z,7.94
2023-01-03T01:32:03.755Z,7.94
2023-01-03T01:33:04.596Z,7.94
2023-01-03T01:34:03.985Z,7.94
2023-01-03T01:35:03.997Z,7.94
2023-01-03T01:36:03.907Z,7.88
2023-01-03T01:37:03.842Z,7.88
2023-01-03T01:38:03.835Z,7.88
2023-01-03T01:39:04.152Z,7.88
2023-01-03T01:40:04.231Z,7.88
2023-01-03T01:41:04.399Z,7.81
2023-01-03T01:42:04.398Z,7.81
2023-01-03T01:43:04.230Z,7.81
2023-01-03T01:44:04.312Z,7.81
2023-01-03T01:45:04.312Z,7.75
2023-01-03T01:46:04.406Z,7.75
2023-01-03T01:47:04.151Z,7.75
2023-01-03T01:48:04.317Z,7.75
2023-01-03T01:49:04.233Z,7.69
2023-01-03T01:50:04.322Z,7.69
2023-01-03T01:51:04.228Z,7.69
2023-01-03T01:52:04.383Z,7.62
2023-01-03T01:53:04.095Z,7.62
2023-01-03T01:54:03.995Z,7.62
2023-01-03T01:55:03.927Z,7.56
2023-01-03T01:56:03.989Z,7.56
2023-01-03T01:57:03.998Z,7.56
2023-01-03T01:58:03.999Z,7.50
2023-01-03T01:59:03.919Z,7.50
2023-01-03T02:00:03.998Z,7.50
2023-01-03T02:01:03.912Z,7.44
2023-01-03T02:02:03.999Z,7.44
2023-01-03T02:03:03.921Z,7.38
2023-01-03T02:04:03.830Z,7.38
2023-01-03T02:05:03.832Z,7.38
2023-01-03T02:06:03.826Z,7.31
2023-01-03T02:07:03.832Z,7.31
2023-01-03T02:08:03.826Z,7.31
2023-01-03T02:09:03.759Z,7.25
2023-01-03T02:10:03.755Z,7.25
2023-01-03T02:11:03.673Z,7.25
2023-01-03T02:12:03.685Z,7.25
2023-01-03T02:13:03.617Z,7.19
2023-01-03T02:14:04.243Z,7.19
2023-01-03T02:15:04.230Z,7.12
2023-01-03T02:16:04.372Z,7.12
2023-01-03T02:17:04.315Z,7.12
2023-01-03T02:18:04.221Z,7.06
2023-01-03T02:19:04.317Z,7.06
2023-01-03T02:20:04.311Z,7.06
2023-01-03T02:21:04.244Z,7.00
2023-01-03T02:22:04.140Z,7.00
2023-01-03T02:23:04.148Z,7.00
2023-01-03T02:24:04.077Z,6.94
2023-01-03T02:25:04.245Z,6.94
2023-01-03T02:26:04.150Z,6.94
2023-01-03T02:27:04.225Z,6.88
2023-01-03T02:28:04.176Z,6.88
2023-01-03T02:29:04.166Z,6.88
2023-01-03T02:30:04.160Z,6.81
2023-01-03T02:31:04.132Z,6.81
2023-01-03T02:32:04.148Z,6.81
2023-01-03T02:33:04.076Z,6.75
2023-01-03T02:34:04.001Z,6.75
2023-01-03T02:35:03.981Z,6.75
2023-01-03T02:36:03.989Z,6.69
2023-01-03T02:37:04.080Z,6.69
2023-01-03T02:38:04.068Z,6.69
2023-01-03T02:39:04.069Z,6.62
2023-01-03T02:40:03.980Z,6.62
2023-01-03T02:41:04.064Z,6.62
2023-01-03T02:42:04.075Z,6.56
2023-01-03T02:43:03.995Z,6.56
2023-01-03T02:44:04.722Z,6.56
2023-01-03T02:45:03.831Z,6.50
2023-01-03T02:46:03.914Z,6.50
2023-01-03T02:47:03.875Z,6.44
2023-01-03T02:48:03.910Z,6.44
2023-01-03T02:49:03.839Z,6.44
2023-01-03T02:50:03.757Z,6.38
2023-01-03T02:51:03.677Z,6.38
2023-01-03T02:52:03.674Z,6.38
2023-01-03T02:53:03.672Z,6.31
2023-01-03T02:54:03.601Z,6.31
2023-01-03T02:55:03.609Z,6.25
2023-01-03T02:56:03.825Z,6.25
2023-01-03T02:57:04.319Z,6.25
2023-01-03T02:58:03.914Z,6.19
2023-01-03T02:59:03.903Z,6.19
2023-01-03T03:00:03.919Z,6.12
2023-01-03T03:01:03.907Z,6.12
2023-01-03T03:02:03.950Z,6.12
2023-01-03T03:03:03.888Z,6.12
2023-01-03T03:04:03.688Z,6.06
2023-01-03T03:05:03.763Z,6.06
2023-01-03T03:06:03.779Z,6.06
2023-01-03T03:07:03.669Z,6.06
2023-01-03T03:08:03.794Z,6.00
2023-01-03T03:09:03.675Z,6.00
2023-01-03T03:10:03.980Z,6.00
2023-01-03T03:11:04.081Z,6.00
2023-01-03T03:12:03.959Z,6.00
2023-01-03T03:13:03.861Z,5.94
2023-01-03T03:14:03.664Z,5.94
2023-01-03T03:15:03.747Z,5.94
2023-01-03T03:16:03.912Z,5.94
2023-01-03T03:17:03.849Z,5.94
2023-01-03T03:18:03.750Z,5.94
2023-01-03T03:19:03.686Z,5.94
2023-01-03T03:20:06.698Z,5.94
2023-01-03T03:21:03.524Z,5.94
2023-01-03T03:22:04.387Z,5.94
2023-01-03T03:23:04.491Z,5.94
2023-01-03T03:24:04.332Z,5.94
2023-01-03T03:25:04.227Z,5.94
2023-01-03T03:26:04.150Z,5.94
2023-01-03T03:27:04.064Z,6.00
2023-01-03T03:28:04.082Z,6.00
2023-01-03T03:29:03.987Z,6.00
2023-01-03T03:30:03.941Z,6.00
2023-01-03T03:31:03.887Z,6.00
2023-01-03T03:32:03.752Z,6.00
2023-01-03T03:33:03.751Z,6.06
2023-01-03T03:34:03.740Z,6.06
2023-01-03T03:35:03.690Z,6.06
2023-01-03T03:36:03.584Z,6.06
2023-01-03T03:37:03.529Z,6.06
2023-01-03T03:38:03.508Z,6.12
2023-01-03T03:39:03.615Z,6.12
2023-01-03T03:40:03.431Z,6.12
2023-01-03T03:41:04.087Z,6.12
2023-01-03T03:42:04.096Z,6.19
2023-01-03T03:43:03.920Z,6.19
2023-01-03T03:44:03.830Z,6.19
2023-01-03T03:45:03.775Z,6.19
2023-01-03T03:46:03.910Z,6.25
2023-01-03T03:47:04.644Z,6.25
2023-01-03T03:48:03.671Z,6.25
2023-01-03T03:49:03.752Z,6.25
2023-01-03T03:50:03.658Z,6.25
2023-01-03T03:51:03.633Z,6.25
2023-01-03T03:52:03.685Z,6.25
2023-01-03T03:53:03.513Z,6.31
2023-01-03T03:54:08.717Z,6.31
2023-01-03T03:55:04.394Z,6.31
2023-01-03T03:56:04.315Z,6.31
2023-01-03T03:57:04.314Z,6.31
2023-01-03T03:58:04.144Z,6.38
2023-01-03T03:59:04.089Z,6.38
2023-01-03T04:00:03.987Z,6.38
2023-01-03T04:01:03.908Z,6.38
2023-01-03T04:02:03.975Z,6.38
2023-01-03T04:03:04.020Z,6.44
2023-01-03T04:04:03.840Z,6.44
2023-01-03T04:05:03.763Z,6.44
2023-01-03T04:06:03.725Z,6.44
2023-01-03T04:07:03.630Z,6.44
2023-01-03T04:08:03.521Z,6.44
2023-01-03T04:09:04.472Z,6.44
2023-01-03T04:10:04.386Z,6.50
2023-01-03T04:11:04.386Z,6.50
2023-01-03T04:12:04.387Z,6.50
2023-01-03T04:13:04.392Z,6.50
2023-01-03T04:14:04.413Z,6.50
2023-01-03T04:15:04.392Z,6.50
2023-01-03T04:16:04.495Z,6.50
2023-01-03T04:17:04.309Z,6.50
2023-01-03T04:18:04.407Z,6.56
2023-01-03T04:19:04.308Z,6.56
2023-01-03T04:20:04.228Z,6.56
2023-01-03T04:21:04.075Z,6.56
2023-01-03T04:22:04.141Z,6.56
2023-01-03T04:23:03.990Z,6.56
2023-01-03T04:24:03.832Z,6.56
2023-01-03T04:25:03.934Z,6.56
2023-01-03T04:26:03.922Z,6.56
2023-01-03T04:27:03.765Z,6.56
2023-01-03T04:28:03.767Z,6.56
2023-01-03T04:29:03.590Z,6.62
2023-01-03T04:30:03.547Z,6.62
2023-01-03T04:31:04.147Z,6.62
2023-01-03T04:32:04.133Z,6.56
2023-01-03T04:33:03.985Z,6.56
2023-01-03T04:34:04.018Z,6.56
2023-01-03T04:35:03.932Z,6.56
2023-01-03T04:36:03.939Z,6.56
2023-01-03T04:37:03.945Z,6.56
2023-01-03T04:38:03.861Z,6.56
2023-01-03T04:39:03.837Z,6.56
2023-01-03T04:40:03.766Z,6.56
2023-01-03T04:41:03.687Z,6.56
2023-01-03T04:42:03.684Z,6.56
2023-01-03T04:43:03.680Z,6.56
2023-01-03T04:44:03.603Z,6.56
2023-01-03T04:45:03.437Z,6.56
2023-01-03T04:46:03.609Z,6.62
2023-01-03T04:47:04.390Z,6.56
2023-01-03T04:48:04.229Z,6.56
2023-01-03T04:49:04.224Z,6.56
2023-01-03T04:50:04.070Z,6.56
2023-01-03T04:51:04.154Z,6.56
2023-01-03T04:52:03.989Z,6.56
2023-01-03T04:53:03.947Z,6.56
2023-01-03T04:54:03.826Z,6.56
2023-01-03T04:55:03.768Z,6.56
2023-01-03T04:56:03.685Z,6.56
2023-01-03T04:57:03.526Z,6.56
2023-01-03T04:58:03.587Z,6.56
2023-01-03T04:59:03.615Z,6.56
2023-01-03T05:00:04.395Z,6.56
2023-01-03T05:01:04.465Z,6.56
2023-01-03T05:02:04.688Z,6.62
2023-01-03T05:03:04.308Z,6.56
2023-01-03T05:04:04.347Z,6.56
2023-01-03T05:05:04.402Z,6.56
2023-01-03T05:06:04.435Z,6.56
2023-01-03T05:07:04.235Z,6.56
2023-01-03T05:08:04.145Z,6.56
2023-01-03T05:09:04.072Z,6.56
2023-01-03T05:10:04.072Z,6.56
2023-01-03T05:11:03.927Z,6.56
2023-01-03T05:12:03.840Z,6.56
2023-01-03T05:13:03.825Z,6.56
2023-01-03T05:14:05.991Z,6.56
2023-01-03T05:15:03.609Z,6.56
2023-01-03T05:16:03.569Z,6.62
2023-01-03T05:17:04.608Z,6.56
2023-01-03T05:18:04.344Z,6.56
2023-01-03T05:19:04.238Z,6.56
2023-01-03T05:20:04.152Z,6.56
2023-01-03T05:21:04.150Z,6.56
2023-01-03T05:22:04.080Z,6.56
2023-01-03T05:23:03.925Z,6.62
2023-01-03T05:24:03.997Z,6.62
2023-01-03T05:25:04.005Z,6.62
2023-01-03T05:26:03.980Z,6.56
2023-01-03T05:27:04.064Z,6.62
2023-01-03T05:28:04.069Z,6.62
2023-01-03T05:29:04.067Z,6.62
2023-01-03T05:30:04.071Z,6.62
2023-01-03T05:31:04.101Z,6.62
2023-01-03T05:32:04.208Z,6.62
2023-01-03T05:33:04.021Z,6.62
2023-01-03T05:34:03.929Z,6.56
2023-01-03T05:35:03.844Z,6.56
2023-01-03T05:36:03.865Z,6.56
2023-01-03T05:37:03.761Z,6.56
2023-01-03T05:38:03.673Z,6.56
2023-01-03T05:39:04.553Z,6.56
2023-01-03T05:40:03.670Z,6.56
2023-01-03T05:41:03.624Z,6.56
2023-01-03T05:42:03.476Z,6.62
2023-01-03T05:43:04.470Z,6.62
2023-01-03T05:44:04.360Z,6.62
2023-01-03T05:45:04.404Z,6.56
2023-01-03T05:46:04.322Z,6.56
2023-01-03T05:47:04.150Z,6.56
2023-01-03T05:48:04.508Z,6.56
2023-01-03T05:49:04.395Z,6.56
2023-01-03T05:50:04.234Z,6.56
2023-01-03T05:51:04.406Z,6.56
2023-01-03T05:52:04.235Z,6.56
2023-01-03T05:53:04.264Z,6.50
2023-01-03T05:54:04.229Z,6.50
2023-01-03T05:55:04.259Z,6.50
2023-01-03T05:56:04.082Z,6.50
2023-01-03T05:57:03.997Z,6.50
2023-01-03T05:58:04.096Z,6.50
2023-01-03T05:59:03.847Z,6.44
2023-01-03T06:00:03.911Z,6.44
2023-01-03T06:01:03.833Z,6.44
2023-01-03T06:02:03.832Z,6.44
2023-01-03T06:03:03.852Z,6.44
2023-01-03T06:04:03.906Z,6.38
2023-01-03T06:05:03.745Z,6.38
2023-01-03T06:06:03.699Z,6.38
2023-01-03T06:07:03.527Z,6.38
2023-01-03T06:08:03.554Z,6.38
2023-01-03T06:09:04.484Z,6.38
2023-01-03T06:10:04.409Z,6.38
2023-01-03T06:11:04.365Z,6.38
2023-01-03T06:12:04.233Z,6.31
2023-01-03T06:13:04.166Z,6.31
2023-01-03T06:14:04.094Z,6.31
2023-01-03T06:15:03.917Z,6.31
2023-01-03T06:16:03.994Z,6.25
2023-01-03T06:17:04.247Z,6.25
2023-01-03T06:18:04.127Z,6.19
2023-01-03T06:19:03.996Z,6.19
2023-01-03T06:20:03.959Z,6.19
2023-01-03T06:21:03.943Z,6.12
2023-01-03T06:22:10.121Z,6.12
2023-01-03T06:23:03.754Z,6.06
2023-01-03T06:24:03.910Z,6.06
2023-01-03T06:25:03.831Z,6.00
2023-01-03T06:26:03.679Z,6.00
2023-01-03T06:27:03.599Z,6.00
2023-01-03T06:28:03.502Z,5.94
2023-01-03T06:29:04.390Z,5.94
2023-01-03T06:30:04.311Z,5.88
2023-01-03T06:31:04.446Z,5.88
2023-01-03T06:32:08.763Z,5.81
2023-01-03T06:33:03.437Z,5.81
2023-01-03T06:34:04.396Z,5.75
2023-01-03T06:35:03.608Z,5.75
2023-01-03T06:36:03.516Z,5.69
2023-01-03T06:37:04.475Z,5.69
2023-01-03T06:38:04.319Z,5.62
2023-01-03T06:39:04.229Z,5.62
2023-01-03T06:40:04.196Z,5.56
2023-01-03T06:41:04.081Z,5.56
2023-01-03T06:42:04.077Z,5.56
2023-01-03T06:43:03.994Z,5.50
2023-01-03T06:44:03.923Z,5.50
2023-01-03T06:45:03.986Z,5.50
2023-01-03T06:46:04.082Z,5.44
2023-01-03T06:47:03.923Z,5.44
2023-01-03T06:48:03.975Z,5.38
2023-01-03T06:49:03.774Z,5.38
2023-01-03T06:50:03.684Z,5.31
2023-01-03T06:51:03.692Z,5.31
2023-01-03T06:52:03.596Z,5.31
2023-01-03T06:53:03.599Z,5.25
2023-01-03T06:54:04.493Z,5.25
2023-01-03T06:55:04.321Z,5.25
2023-01-03T06:56:04.242Z,5.25
2023-01-03T06:57:04.252Z,5.19
2023-01-03T06:58:04.149Z,5.19
2023-01-03T06:59:04.076Z,5.12
2023-01-03T07:00:04.134Z,5.12
2023-01-03T07:01:04.292Z,5.12
2023-01-03T07:02:04.330Z,5.06
2023-01-03T07:03:09.010Z,5.06
2023-01-03T07:04:04.014Z,5.00
2023-01-03T07:05:03.827Z,5.00
2023-01-03T07:06:03.767Z,5.00
2023-01-03T07:07:03.921Z,4.94
2023-01-03T07:08:03.833Z,4.94
2023-01-03T07:09:03.754Z,4.88
2023-01-03T07:10:03.669Z,4.88
2023-01-03T07:11:03.518Z,4.88
2023-01-03T07:12:03.593Z,4.81
2023-01-03T07:13:03.516Z,4.81
2023-01-03T07:14:03.463Z,4.75
2023-01-03T07:15:04.403Z,4.75
2023-01-03T07:16:04.290Z,4.75
2023-01-03T07:17:04.332Z,4.75
2023-01-03T07:18:04.183Z,4.69
2023-01-03T07:19:04.224Z,4.69
2023-01-03T07:20:04.156Z,4.69
2023-01-03T07:21:03.994Z,4.62
2023-01-03T07:22:03.952Z,4.62
2023-01-03T07:23:03.991Z,4.56
2023-01-03T07:24:03.923Z,4.56
2023-01-03T07:25:04.234Z,4.56
2023-01-03T07:26:04.317Z,4.50
2023-01-03T07:27:04.395Z,4.50
2023-01-03T07:28:07.231Z,4.50
2023-01-03T07:29:04.112Z,4.50
2023-01-03T07:30:03.993Z,4.50
2023-01-03T07:31:04.012Z,4.50
2023-01-03T07:32:03.904Z,4.50
2023-01-03T07:33:03.924Z,4.44
2023-01-03T07:34:04.304Z,4.44
2023-01-03T07:35:04.354Z,4.44
2023-01-03T07:36:09.455Z,4.38
2023-01-03T07:37:04.270Z,4.38
2023-01-03T07:38:04.373Z,4.38
2023-01-03T07:39:04.267Z,4.38
2023-01-03T07:40:04.249Z,4.38
2023-01-03T07:41:04.081Z,4.38
2023-01-03T07:42:04.020Z,4.31
2023-01-03T07:43:04.011Z,4.38
2023-01-03T07:44:03.866Z,4.31
2023-01-03T07:45:03.837Z,4.31
2023-01-03T07:46:03.886Z,4.31
2023-01-03T07:47:03.840Z,4.31
2023-01-03T07:48:03.680Z,4.31
2023-01-03T07:49:07.940Z,4.31
2023-01-03T07:50:03.600Z,4.31
2023-01-03T07:51:03.509Z,4.25
2023-01-03T07:52:04.496Z,4.25
2023-01-03T07:53:03.634Z,4.25
2023-01-03T07:54:03.617Z,4.25
2023-01-03T07:55:03.622Z,4.25
2023-01-03T07:56:06.511Z,4.25
2023-01-03T07:57:03.451Z,4.25
2023-01-03T07:58:04.446Z,4.25
2023-01-03T07:59:04.337Z,4.19
2023-01-03T08:00:04.396Z,4.19
2023-01-03T08:01:04.229Z,4.19
2023-01-03T08:02:04.169Z,4.19
2023-01-03T08:03:07.709Z,4.19
2023-01-03T08:04:04.203Z,4.19
2023-01-03T08:05:04.274Z,4.19
2023-01-03T08:06:03.984Z,4.19
2023-01-03T08:07:03.853Z,4.12
2023-01-03T08:08:03.916Z,4.12
2023-01-03T08:09:06.189Z,4.12
2023-01-03T08:10:03.851Z,4.12
2023-01-03T08:11:03.833Z,4.12
2023-01-03T08:12:04.313Z,4.12
2023-01-03T08:13:04.312Z,4.12
2023-01-03T08:14:04.415Z,4.12
2023-01-03T08:15:04.315Z,4.12
2023-01-03T08:16:04.395Z,4.12
2023-01-03T08:17:04.188Z,4.12
2023-01-03T08:18:04.094Z,4.12
2023-01-03T08:19:04.091Z,4.12
2023-01-03T08:20:03.989Z,4.12
2023-01-03T08:21:03.994Z,4.12
2023-01-03T08:22:03.911Z,4.12
2023-01-03T08:23:03.935Z,4.12
2023-01-03T08:24:03.830Z,4.12
2023-01-03T08:25:03.829Z,4.12
2023-01-03T08:26:03.781Z,4.12
2023-01-03T08:27:03.771Z,4.12
2023-01-03T08:28:03.667Z,4.12
2023-01-03T08:29:03.610Z,4.12
2023-01-03T08:30:03.665Z,4.12
2023-01-03T08:31:03.724Z,4.19
2023-01-03T08:32:03.533Z,4.12
2023-01-03T08:33:04.482Z,4.19
2023-01-03T08:34:07.557Z,4.19
2023-01-03T08:35:04.408Z,4.19
2023-01-03T08:36:04.229Z,4.19
2023-01-03T08:37:04.316Z,4.19
2023-01-03T08:38:04.166Z,4.19
2023-01-03T08:39:04.090Z,4.19
2023-01-03T08:40:04.072Z,4.19
2023-01-03T08:41:03.996Z,4.25
2023-01-03T08:42:04.019Z,4.19
2023-01-03T08:43:03.851Z,4.25
2023-01-03T08:44:03.773Z,4.25
2023-01-03T08:45:03.826Z,4.25
2023-01-03T08:46:03.764Z,4.25
2023-01-03T08:47:03.743Z,4.31
2023-01-03T08:48:03.529Z,4.31
2023-01-03T08:49:03.515Z,4.31
2023-01-03T08:50:03.565Z,4.31
2023-01-03T08:51:04.392Z,4.31
2023-01-03T08:52:03.914Z,4.38
2023-01-03T08:53:03.870Z,4.38
2023-01-03T08:54:03.666Z,4.38
2023-01-03T08:55:03.602Z,4.38
2023-01-03T08:56:03.609Z,4.44
2023-01-03T08:57:03.603Z,4.44
2023-01-03T08:58:03.463Z,4.44
2023-01-03T08:59:03.516Z,4.44
2023-01-03T09:00:04.474Z,4.44
2023-01-03T09:01:04.400Z,4.44
2023-01-03T09:02:04.574Z,4.50
2023-01-03T09:03:03.749Z,4.50
2023-01-03T09:04:03.476Z,4.50
2023-01-03T09:05:03.426Z,4.50
2023-01-03T09:06:04.411Z,4.50
2023-01-03T09:07:04.310Z,4.56
2023-01-03T09:08:04.167Z,4.56
2023-01-03T09:09:04.152Z,4.56
2023-01-03T09:10:04.093Z,4.56
2023-01-03T09:11:04.017Z,4.56
2023-01-03T09:12:04.080Z,4.62
2023-01-03T09:13:04.005Z,4.62
2023-01-03T09:14:03.914Z,4.62
2023-01-03T09:15:03.853Z,4.62
2023-01-03T09:16:03.839Z,4.62
2023-01-03T09:17:03.771Z,4.69
2023-01-03T09:18:03.586Z,4.69
2023-01-03T09:19:03.830Z,4.69
2023-01-03T09:20:04.009Z,4.75
2023-01-03T09:21:04.041Z,4.75
2023-01-03T09:22:03.836Z,4.75
2023-01-03T09:23:03.836Z,4.75
2023-01-03T09:24:04.234Z,4.75
2023-01-03T09:25:04.228Z,4.81
2023-01-03T09:26:04.155Z,4.81
2023-01-03T09:27:03.617Z,4.81
2023-01-03T09:28:03.510Z,4.81
2023-01-03T09:29:04.523Z,4.88
2023-01-03T09:30:04.304Z,4.88
2023-01-03T09:31:03.582Z,4.88
2023-01-03T09:32:03.845Z,4.88
2023-01-03T09:33:03.507Z,4.94
2023-01-03T09:34:03.465Z,4.94
2023-01-03T09:35:03.446Z,4.94
2023-01-03T09:36:04.335Z,4.94
2023-01-03T09:37:03.689Z,5.00
2023-01-03T09:38:03.587Z,5.00
2023-01-03T09:39:03.524Z,5.06
2023-01-03T09:40:04.500Z,5.06
2023-01-03T09:41:04.401Z,5.06
2023-01-03T09:42:04.319Z,5.06
2023-01-03T09:43:04.226Z,5.12
2023-01-03T09:44:04.234Z,5.12
2023-01-03T09:45:04.183Z,5.19
2023-01-03T09:46:04.008Z,5.19
2023-01-03T09:47:04.133Z,5.19
2023-01-03T09:48:04.000Z,5.25
2023-01-03T09:49:03.923Z,5.25
2023-01-03T09:50:31.623Z,5.25
2023-01-03T09:51:19.469Z,5.31
2023-01-03T09:52:04.473Z,5.31
2023-01-03T09:53:04.426Z,5.38
2023-01-03T09:54:04.339Z,5.38
2023-01-03T09:55:04.232Z,5.38
2023-01-03T09:56:04.146Z,5.44
2023-01-03T09:57:04.063Z,5.44
2023-01-03T09:58:03.997Z,5.44
2023-01-03T09:59:03.999Z,5.50
2023-01-03T10:00:03.996Z,5.50
2023-01-03T10:01:03.979Z,5.50
2023-01-03T10:02:04.045Z,5.56
2023-01-03T10:03:04.004Z,5.56
2023-01-03T10:04:03.804Z,5.56
2023-01-03T10:05:03.748Z,5.62
2023-01-03T10:06:03.826Z,5.62
2023-01-03T10:07:03.857Z,5.62
2023-01-03T10:08:03.833Z,5.69
2023-01-03T10:09:03.727Z,5.69
2023-01-03T10:10:04.928Z,5.75
2023-01-03T10:11:03.605Z,5.75
2023-01-03T10:12:04.511Z,5.81
2023-01-03T10:13:04.401Z,5.81
2023-01-03T10:14:04.229Z,5.81
2023-01-03T10:15:04.323Z,5.88
2023-01-03T10:16:04.379Z,5.88
2023-01-03T10:17:04.467Z,5.94
2023-01-03T10:18:04.482Z,5.94
2023-01-03T10:19:04.367Z,6.00
2023-01-03T10:20:04.237Z,6.00
2023-01-03T10:21:04.238Z,6.00
2023-01-03T10:22:04.155Z,6.06
2023-01-03T10:23:04.092Z,6.06
2023-01-03T10:24:03.926Z,6.06
2023-01-03T10:25:04.030Z,6.12
2023-01-03T10:26:03.837Z,6.19
2023-01-03T10:27:03.839Z,6.19
2023-01-03T10:28:03.913Z,6.19
2023-01-03T10:29:03.862Z,6.25
2023-01-03T10:30:03.763Z,6.25
2023-01-03T10:31:07.529Z,6.31
2023-01-03T10:32:03.828Z,6.31
2023-01-03T10:33:03.711Z,6.31
2023-01-03T10:34:03.513Z,6.38
2023-01-03T10:35:03.587Z,6.38
2023-01-03T10:36:03.601Z,6.44
2023-01-03T10:37:03.448Z,6.44
2023-01-03T10:38:04.399Z,6.50
2023-01-03T10:39:05.289Z,6.50
2023-01-03T10:40:04.235Z,6.56
2023-01-03T10:41:04.235Z,6.56
2023-01-03T10:42:04.152Z,6.62
2023-01-03T10:43:04.096Z,6.62
2023-01-03T10:44:04.160Z,6.69
2023-01-03T10:45:04.081Z,6.75
2023-01-03T10:46:04.129Z,6.75
2023-01-03T10:47:03.915Z,6.81
2023-01-03T10:48:03.928Z,6.81
2023-01-03T10:49:27.677Z,6.81
2023-01-03T10:50:03.684Z,6.88
2023-01-03T10:51:03.683Z,6.88
2023-01-03T10:52:03.832Z,6.94
2023-01-03T10:53:03.685Z,6.94
2023-01-03T10:54:03.689Z,7.00
2023-01-03T10:55:03.599Z,7.00
2023-01-03T10:56:03.932Z,7.06
2023-01-03T10:57:03.911Z,7.06
2023-01-03T10:58:03.834Z,7.12
2023-01-03T10:59:03.748Z,7.12
2023-01-03T11:00:03.693Z,7.12
2023-01-03T11:01:03.635Z,7.19
2023-01-03T11:02:03.679Z,7.19
2023-01-03T11:03:04.523Z,7.25
2023-01-03T11:04:04.348Z,7.25
2023-01-03T11:05:04.238Z,7.25
2023-01-03T11:06:04.152Z,7.31
2023-01-03T11:07:04.278Z,7.31
2023-01-03T11:08:04.181Z,7.31
2023-01-03T11:09:04.072Z,7.38
2023-01-03T11:10:04.028Z,7.38
2023-01-03T11:11:03.922Z,7.38
2023-01-03T11:12:03.852Z,7.44
2023-01-03T11:13:03.758Z,7.44
2023-01-03T11:14:03.794Z,7.44
2023-01-03T11:15:08.951Z,7.44
2023-01-03T11:16:03.684Z,7.50
2023-01-03T11:17:03.943Z,7.50
2023-01-03T11:18:03.667Z,7.50
2023-01-03T11:19:03.608Z,7.56
2023-01-03T11:20:03.511Z,7.56
2023-01-03T11:21:04.412Z,7.56
2023-01-03T11:22:03.428Z,7.62
2023-01-03T11:23:03.517Z,7.62
2023-01-03T11:24:03.511Z,7.62
2023-01-03T11:25:03.515Z,7.69
2023-01-03T11:26:04.392Z,7.69
2023-01-03T11:27:04.320Z,7.69
2023-01-03T11:28:04.940Z,7.75
2023-01-03T11:29:04.331Z,7.75
2023-01-03T11:30:04.338Z,7.75
2023-01-03T11:31:04.238Z,7.81
2023-01-03T11:32:04.148Z,7.81
2023-01-03T11:33:04.150Z,7.81
2023-01-03T11:34:04.089Z,7.88
2023-01-03T11:35:24.958Z,7.88
2023-01-03T11:36:03.981Z,7.88
2023-01-03T11:37:03.912Z,7.94
2023-01-03T11:38:03.937Z,7.94
2023-01-03T11:39:04.339Z,7.94
2023-01-03T11:40:03.825Z,7.94
2023-01-03T11:41:03.859Z,7.94
2023-01-03T11:42:03.834Z,8.00
2023-01-03T11:43:03.764Z,8.00
2023-01-03T11:44:03.599Z,8.00
2023-01-03T11:45:03.608Z,8.00
2023-01-03T11:46:03.655Z,8.06
2023-01-03T11:47:03.511Z,8.06
2023-01-03T11:48:03.628Z,8.06
2023-01-03T11:49:03.673Z,8.06
2023-01-03T11:50:03.602Z,8.12
2023-01-03T11:51:03.624Z,8.12
2023-01-03T11:52:04.396Z,8.12
2023-01-03T11:53:04.393Z,8.12
2023-01-03T11:54:04.311Z,8.19
2023-01-03T11:55:04.223Z,8.19
2023-01-03T11:56:04.230Z,8.19
2023-01-03T11:57:04.142Z,8.19
2023-01-03T11:58:04.179Z,8.19
2023-01-03T11:59:04.157Z,8.25
2023-01-03T12:00:04.067Z,8.25
2023-01-03T12:01:03.998Z,8.25
2023-01-03T12:02:04.125Z,8.25
2023-01-03T12:03:04.165Z,8.31
2023-01-03T12:04:04.009Z,8.31
2023-01-03T12:05:04.017Z,8.31
2023-01-03T12:06:03.928Z,8.31
2023-01-03T12:07:37.319Z,8.38
2023-01-03T12:08:03.940Z,8.38
2023-01-03T12:09:03.864Z,8.38
2023-01-03T12:10:03.748Z,8.38
2023-01-03T12:11:03.776Z,8.38
2023-01-03T12:12:03.763Z,8.38
2023-01-03T12:13:03.663Z,8.38
2023-01-03T12:14:03.609Z,8.38
2023-01-03T12:15:03.578Z,8.38
2023-01-03T12:16:04.516Z,8.38
2023-01-03T12:17:04.386Z,8.44
2023-01-03T12:18:04.467Z,8.44
2023-01-03T12:19:06.975Z,8.44
2023-01-03T12:20:04.398Z,8.44
2023-01-03T12:21:04.256Z,8.44
2023-01-03T12:22:04.168Z,8.50
2023-01-03T12:23:04.151Z,8.50
2023-01-03T12:24:03.528Z,8.50
2023-01-03T12:25:05.621Z,8.56
2023-01-03T12:26:04.316Z,8.56
2023-01-03T12:27:04.321Z,8.56
2023-01-03T12:28:04.309Z,8.56
2023-01-03T12:29:04.223Z,8.56
2023-01-03T12:30:04.224Z,8.56
2023-01-03T12:31:04.241Z,8.62
2023-01-03T12:32:04.189Z,8.62
2023-01-03T12:33:04.155Z,8.62
2023-01-03T12:34:04.102Z,8.62
2023-01-03T12:35:04.075Z,8.62
2023-01-03T12:36:03.928Z,8.62
2023-01-03T12:37:03.922Z,8.62
2023-01-03T12:38:03.908Z,8.62
2023-01-03T12:39:04.043Z,8.62
2023-01-03T12:40:03.898Z,8.62
2023-01-03T12:41:03.859Z,8.62
2023-01-03T12:42:03.669Z,8.62
2023-01-03T12:43:03.593Z,8.62
2023-01-03T12:44:03.864Z,8.62
2023-01-03T12:45:03.841Z,8.62
2023-01-03T12:46:08.675Z,8.62
2023-01-03T12:47:03.781Z,8.62
2023-01-03T12:48:03.605Z,8.62
2023-01-03T12:49:03.583Z,8.62
2023-01-03T12:50:03.591Z,8.62
2023-01-03T12:51:03.537Z,8.62
2023-01-03T12:52:03.424Z,8.56
2023-01-03T12:53:04.413Z,8.62
2023-01-03T12:54:04.430Z,8.56
2023-01-03T12:55:04.238Z,8.62
2023-01-03T12:56:04.273Z,8.62
2023-01-03T12:57:04.198Z,8.62
2023-01-03T12:58:04.183Z,8.62
2023-01-03T12:59:04.338Z,8.62
2023-01-03T13:00:04.310Z,8.62
2023-01-03T13:01:04.147Z,8.62
2023-01-03T13:02:04.376Z,8.62
2023-01-03T13:03:04.349Z,8.62
2023-01-03T13:04:04.279Z,8.62
2023-01-03T13:05:04.109Z,8.62
2023-01-03T13:06:03.929Z,8.62
2023-01-03T13:07:03.953Z,8.69
2023-01-03T13:08:03.753Z,8.69
2023-01-03T13:09:03.814Z,8.69
2023-01-03T13:10:03.692Z,8.69
2023-01-03T13:11:03.518Z,8.69
2023-01-03T13:12:03.518Z,8.69
2023-01-03T13:13:04.321Z,8.75
2023-01-03T13:14:04.317Z,8.75
2023-01-03T13:15:04.394Z,8.75
2023-01-03T13:16:04.291Z,8.75
2023-01-03T13:17:04.177Z,8.75
2023-01-03T13:18:04.197Z,8.75